AAL392 TGPY-TBPB
Flight info
| Callsign | AAL392 |
|---|---|
| Flight time | 0h 44m |
| Altitude | 21000 |
| Route | RABOT DCT LEXAS A561 RAKAN DCT OLIDO |
| Aircraft | B738/M-SDE2E3FGHIRWXY/LB1 |
Departure
| Time | 2026-05-05 23:53 |
|---|---|
| Airport | Maurice Bishop International Airport (TGPY) |
Arrival
| Time | 2026-05-06 00:38 |
|---|---|
| Airport | Grantley Adams International Airport (TBPB) |
| Time | Latitude | Longitude | Altitude | Speed | Heading |
|---|---|---|---|---|---|
| 2026-05-05 23:26 | 12.00660 | -61.78533 | 46 ft | 0 kts | 0° |
| 2026-05-05 23:41 | 12.00659 | -61.78533 | 46 ft | 0 kts | 0° |
| 2026-05-05 23:41 | 12.00657 | -61.78533 | 46 ft | 0 kts | 0° |
| 2026-05-05 23:41 | 12.00655 | -61.78533 | 46 ft | 0 kts | 0° |
| 2026-05-05 23:42 | 12.00654 | -61.78533 | 46 ft | 0 kts | 0° |
| 2026-05-05 23:42 | 12.00652 | -61.78533 | 46 ft | 0 kts | 360° |
| 2026-05-05 23:42 | 12.00650 | -61.78533 | 46 ft | 0 kts | 360° |
| 2026-05-05 23:42 | 12.00648 | -61.78533 | 46 ft | 0 kts | 359° |
| 2026-05-05 23:43 | 12.00646 | -61.78533 | 43 ft | 0 kts | 359° |
| 2026-05-05 23:43 | 12.00644 | -61.78533 | 43 ft | 0 kts | 358° |
| 2026-05-05 23:43 | 12.00642 | -61.78533 | 42 ft | 0 kts | 358° |
| 2026-05-05 23:43 | 12.00641 | -61.78533 | 43 ft | 0 kts | 358° |
| 2026-05-05 23:44 | 12.00638 | -61.78533 | 43 ft | 0 kts | 358° |
| 2026-05-05 23:44 | 12.00637 | -61.78533 | 43 ft | 0 kts | 357° |
| 2026-05-05 23:44 | 12.00635 | -61.78533 | 43 ft | 0 kts | 357° |
| 2026-05-05 23:44 | 12.00634 | -61.78532 | 44 ft | 0 kts | 357° |
| 2026-05-05 23:45 | 12.00633 | -61.78532 | 44 ft | 0 kts | 357° |
| 2026-05-05 23:47 | 12.00634 | -61.78533 | 44 ft | 0 kts | 346° |
| 2026-05-05 23:47 | 12.00634 | -61.78534 | 44 ft | 0 kts | 332° |
| 2026-05-05 23:47 | 12.00634 | -61.78535 | 44 ft | 0 kts | 313° |
| 2026-05-05 23:47 | 12.00634 | -61.78536 | 44 ft | 0 kts | 296° |
| 2026-05-05 23:48 | 12.00633 | -61.78546 | 43 ft | 5 kts | 264° |
| 2026-05-05 23:48 | 12.00611 | -61.78574 | 45 ft | 10 kts | 214° |
| 2026-05-05 23:48 | 12.00518 | -61.78596 | 42 ft | 12 kts | 179° |
| 2026-05-05 23:48 | 12.00423 | -61.78601 | 38 ft | 0 kts | 198° |
| 2026-05-05 23:49 | 12.00422 | -61.78603 | 39 ft | 0 kts | 221° |
| 2026-05-05 23:49 | 12.00417 | -61.78618 | 41 ft | 7 kts | 251° |
| 2026-05-05 23:49 | 12.00408 | -61.78707 | 41 ft | 18 kts | 270° |
| 2026-05-05 23:50 | 12.00408 | -61.78871 | 40 ft | 27 kts | 270° |
| 2026-05-05 23:50 | 12.00411 | -61.79093 | 37 ft | 35 kts | 269° |
| 2026-05-05 23:50 | 12.00411 | -61.79364 | 37 ft | 42 kts | 269° |
| 2026-05-05 23:50 | 12.00412 | -61.79649 | 34 ft | 32 kts | 273° |
| 2026-05-05 23:51 | 12.00438 | -61.79787 | 33 ft | 8 kts | 300° |
| 2026-05-05 23:51 | 12.00466 | -61.79839 | 33 ft | 0 kts | 272° |
| 2026-05-05 23:51 | 12.00462 | -61.79847 | 33 ft | 4 kts | 246° |
| 2026-05-05 23:51 | 12.00443 | -61.79859 | 32 ft | 4 kts | 188° |
| 2026-05-05 23:52 | 12.00422 | -61.79846 | 33 ft | 4 kts | 123° |
| 2026-05-05 23:52 | 12.00415 | -61.79808 | 33 ft | 7 kts | 88° |
| 2026-05-05 23:52 | 12.00414 | -61.79792 | 32 ft | 0 kts | 90° |
| 2026-05-05 23:53 | 12.00414 | -61.79774 | 32 ft | 14 kts | 90° |
| 2026-05-05 23:53 | 12.00411 | -61.79304 | 35 ft | 118 kts | 89° |
| 2026-05-05 23:53 | 12.00420 | -61.78213 | 108 ft | 195 kts | 91° |
| 2026-05-05 23:53 | 12.00316 | -61.76759 | 1092 ft | 204 kts | 91° |
| 2026-05-05 23:54 | 12.00288 | -61.75397 | 2736 ft | 181 kts | 88° |
| 2026-05-05 23:54 | 12.00310 | -61.74148 | 4160 ft | 183 kts | 90° |
| 2026-05-05 23:54 | 12.00323 | -61.72697 | 4524 ft | 221 kts | 90° |
| 2026-05-05 23:54 | 12.00322 | -61.70895 | 2940 ft | 292 kts | 90° |
| 2026-05-05 23:55 | 12.00309 | -61.69042 | 3800 ft | 266 kts | 90° |
| 2026-05-05 23:55 | 12.00484 | -61.67177 | 4154 ft | 259 kts | 73° |
| 2026-05-05 23:55 | 12.01251 | -61.65558 | 4531 ft | 260 kts | 60° |
| 2026-05-05 23:55 | 12.02231 | -61.63975 | 4922 ft | 265 kts | 58° |
| 2026-05-05 23:56 | 12.03223 | -61.62413 | 5511 ft | 258 kts | 58° |
| 2026-05-05 23:56 | 12.04222 | -61.60842 | 6288 ft | 269 kts | 58° |
| 2026-05-05 23:56 | 12.05254 | -61.59210 | 7051 ft | 277 kts | 58° |
| 2026-05-05 23:56 | 12.06300 | -61.57548 | 7804 ft | 278 kts | 58° |
| 2026-05-05 23:57 | 12.07349 | -61.55876 | 8544 ft | 281 kts | 58° |
| 2026-05-05 23:57 | 12.08404 | -61.54190 | 9306 ft | 283 kts | 58° |
| 2026-05-05 23:57 | 12.09455 | -61.52507 | 10048 ft | 285 kts | 58° |
| 2026-05-05 23:57 | 12.10528 | -61.50785 | 10808 ft | 291 kts | 58° |
| 2026-05-05 23:58 | 12.11642 | -61.48997 | 11583 ft | 299 kts | 58° |
| 2026-05-05 23:58 | 12.12758 | -61.47204 | 12335 ft | 307 kts | 58° |
| 2026-05-05 23:58 | 12.13919 | -61.45338 | 13098 ft | 314 kts | 58° |
| 2026-05-05 23:58 | 12.15104 | -61.43434 | 13858 ft | 321 kts | 58° |
| 2026-05-05 23:59 | 12.16312 | -61.41491 | 14614 ft | 327 kts | 58° |
| 2026-05-05 23:59 | 12.17542 | -61.39514 | 15373 ft | 332 kts | 59° |
| 2026-05-05 23:59 | 12.18790 | -61.37507 | 16129 ft | 337 kts | 59° |
| 2026-05-05 23:59 | 12.20054 | -61.35473 | 16887 ft | 341 kts | 59° |
| 2026-05-06 00:00 | 12.21335 | -61.33412 | 17633 ft | 345 kts | 59° |
| 2026-05-06 00:00 | 12.22538 | -61.31312 | 18377 ft | 347 kts | 64° |
| 2026-05-06 00:00 | 12.23622 | -61.29101 | 19130 ft | 349 kts | 66° |
| 2026-05-06 00:00 | 12.24660 | -61.26857 | 19887 ft | 351 kts | 67° |
| 2026-05-06 00:01 | 12.25698 | -61.24583 | 20593 ft | 354 kts | 67° |
| 2026-05-06 00:01 | 12.26763 | -61.22254 | 20932 ft | 369 kts | 67° |
| 2026-05-06 00:01 | 12.27879 | -61.19827 | 20973 ft | 387 kts | 66° |
| 2026-05-06 00:01 | 12.29045 | -61.17314 | 20978 ft | 393 kts | 66° |
| 2026-05-06 00:02 | 12.30222 | -61.14792 | 20973 ft | 394 kts | 66° |
| 2026-05-06 00:02 | 12.31393 | -61.12293 | 20972 ft | 394 kts | 66° |
| 2026-05-06 00:02 | 12.32578 | -61.09767 | 20972 ft | 394 kts | 66° |
| 2026-05-06 00:02 | 12.33762 | -61.07244 | 20972 ft | 394 kts | 66° |
| 2026-05-06 00:03 | 12.34951 | -61.04710 | 20972 ft | 394 kts | 66° |
| 2026-05-06 00:03 | 12.36156 | -61.02138 | 20986 ft | 409 kts | 66° |
| 2026-05-06 00:03 | 12.37404 | -60.99471 | 20988 ft | 423 kts | 66° |
| 2026-05-06 00:03 | 12.38692 | -60.96719 | 20985 ft | 434 kts | 66° |
| 2026-05-06 00:04 | 12.40003 | -60.93920 | 20973 ft | 436 kts | 66° |
| 2026-05-06 00:04 | 12.41303 | -60.91146 | 20960 ft | 432 kts | 66° |
| 2026-05-06 00:04 | 12.42599 | -60.88382 | 20965 ft | 429 kts | 66° |
| 2026-05-06 00:04 | 12.43881 | -60.85644 | 20967 ft | 428 kts | 66° |
| 2026-05-06 00:05 | 12.46444 | -60.80164 | 20974 ft | 429 kts | 66° |
| 2026-05-06 00:05 | 12.47729 | -60.77414 | 20976 ft | 430 kts | 66° |
| 2026-05-06 00:05 | 12.49020 | -60.74649 | 20974 ft | 432 kts | 66° |
| 2026-05-06 00:06 | 12.50316 | -60.71875 | 20973 ft | 433 kts | 66° |
| 2026-05-06 00:06 | 12.51611 | -60.69101 | 20963 ft | 425 kts | 66° |
| 2026-05-06 00:06 | 12.52865 | -60.66419 | 20957 ft | 409 kts | 66° |
| 2026-05-06 00:06 | 12.54066 | -60.63849 | 20748 ft | 397 kts | 66° |
| 2026-05-06 00:07 | 12.55255 | -60.61296 | 20193 ft | 395 kts | 66° |
| 2026-05-06 00:07 | 12.56438 | -60.58758 | 19573 ft | 395 kts | 66° |
| 2026-05-06 00:07 | 12.57604 | -60.56256 | 18954 ft | 393 kts | 66° |
| 2026-05-06 00:07 | 12.58774 | -60.53747 | 18339 ft | 391 kts | 65° |
| 2026-05-06 00:08 | 12.59994 | -60.51263 | 17724 ft | 389 kts | 64° |
| 2026-05-06 00:08 | 12.61256 | -60.48828 | 17101 ft | 387 kts | 63° |
| 2026-05-06 00:08 | 12.62534 | -60.46403 | 16476 ft | 385 kts | 63° |
| 2026-05-06 00:08 | 12.63799 | -60.44004 | 15854 ft | 383 kts | 63° |
| 2026-05-06 00:09 | 12.65056 | -60.41612 | 15232 ft | 381 kts | 63° |
| 2026-05-06 00:09 | 12.66305 | -60.39222 | 14605 ft | 378 kts | 63° |
| 2026-05-06 00:09 | 12.67539 | -60.36853 | 13982 ft | 376 kts | 63° |
| 2026-05-06 00:09 | 12.68748 | -60.34523 | 13369 ft | 374 kts | 63° |
| 2026-05-06 00:10 | 12.69961 | -60.32183 | 12742 ft | 371 kts | 63° |
| 2026-05-06 00:10 | 12.71154 | -60.29880 | 12115 ft | 361 kts | 63° |
| 2026-05-06 00:10 | 12.72316 | -60.27636 | 11491 ft | 351 kts | 63° |
| 2026-05-06 00:10 | 12.73441 | -60.25462 | 10859 ft | 342 kts | 63° |
| 2026-05-06 00:11 | 12.74544 | -60.23330 | 10227 ft | 333 kts | 63° |
| 2026-05-06 00:11 | 12.75612 | -60.21264 | 9601 ft | 326 kts | 63° |
| 2026-05-06 00:11 | 12.76664 | -60.19229 | 8977 ft | 319 kts | 63° |
| 2026-05-06 00:11 | 12.77692 | -60.17241 | 8354 ft | 313 kts | 63° |
| 2026-05-06 00:12 | 12.78702 | -60.15286 | 7731 ft | 308 kts | 63° |
| 2026-05-06 00:12 | 12.79686 | -60.13382 | 7111 ft | 304 kts | 63° |
| 2026-05-06 00:12 | 12.80666 | -60.11483 | 6492 ft | 300 kts | 63° |
| 2026-05-06 00:12 | 12.81637 | -60.09602 | 5880 ft | 297 kts | 63° |
| 2026-05-06 00:13 | 12.82597 | -60.07744 | 5268 ft | 293 kts | 63° |
| 2026-05-06 00:13 | 12.83528 | -60.05940 | 4884 ft | 281 kts | 63° |
| 2026-05-06 00:13 | 12.84428 | -60.04198 | 4506 ft | 271 kts | 63° |
| 2026-05-06 00:13 | 12.85294 | -60.02518 | 4134 ft | 263 kts | 63° |
| 2026-05-06 00:14 | 12.86138 | -60.00883 | 3746 ft | 256 kts | 63° |
| 2026-05-06 00:14 | 12.86960 | -59.99289 | 3373 ft | 252 kts | 63° |
| 2026-05-06 00:14 | 12.87772 | -59.97711 | 3035 ft | 249 kts | 63° |
| 2026-05-06 00:14 | 12.88577 | -59.96149 | 3006 ft | 255 kts | 63° |
| 2026-05-06 00:15 | 12.89406 | -59.94540 | 2978 ft | 254 kts | 63° |
| 2026-05-06 00:15 | 12.90224 | -59.92954 | 2974 ft | 250 kts | 63° |
| 2026-05-06 00:15 | 12.91034 | -59.91382 | 2971 ft | 248 kts | 63° |
| 2026-05-06 00:15 | 12.91844 | -59.89809 | 2979 ft | 250 kts | 63° |
| 2026-05-06 00:16 | 12.92655 | -59.88234 | 2975 ft | 250 kts | 63° |
| 2026-05-06 00:16 | 12.93467 | -59.86657 | 2973 ft | 250 kts | 63° |
| 2026-05-06 00:16 | 12.94271 | -59.85096 | 2980 ft | 251 kts | 63° |
| 2026-05-06 00:16 | 12.95095 | -59.83496 | 2978 ft | 251 kts | 63° |
| 2026-05-06 00:17 | 12.95895 | -59.81941 | 2974 ft | 251 kts | 63° |
| 2026-05-06 00:17 | 12.96710 | -59.80357 | 2974 ft | 251 kts | 63° |
| 2026-05-06 00:17 | 12.97249 | -59.79310 | 2973 ft | 251 kts | 63° |
| 2026-05-06 00:17 | 12.98228 | -59.77407 | 2977 ft | 251 kts | 63° |
| 2026-05-06 00:18 | 12.99040 | -59.75828 | 2978 ft | 251 kts | 63° |
| 2026-05-06 00:18 | 12.99849 | -59.74255 | 2975 ft | 251 kts | 63° |
| 2026-05-06 00:18 | 13.00664 | -59.72670 | 2975 ft | 251 kts | 63° |
| 2026-05-06 00:18 | 13.01478 | -59.71086 | 2977 ft | 251 kts | 63° |
| 2026-05-06 00:19 | 13.02293 | -59.69501 | 2976 ft | 251 kts | 63° |
| 2026-05-06 00:19 | 13.03092 | -59.67948 | 2969 ft | 247 kts | 63° |
| 2026-05-06 00:19 | 13.03883 | -59.66409 | 2971 ft | 241 kts | 63° |
| 2026-05-06 00:19 | 13.04674 | -59.64869 | 2910 ft | 242 kts | 63° |
| 2026-05-06 00:20 | 13.04868 | -59.64489 | 2924 ft | 241 kts | 63° |
| 2026-05-06 00:20 | 13.05153 | -59.63938 | 2928 ft | 240 kts | 62° |
| 2026-05-06 00:20 | 13.05575 | -59.62325 | 2915 ft | 232 kts | 94° |
| 2026-05-06 00:20 | 13.05285 | -59.60748 | 2922 ft | 219 kts | 101° |
| 2026-05-06 00:21 | 13.04912 | -59.59282 | 2917 ft | 204 kts | 94° |
| 2026-05-06 00:21 | 13.05178 | -59.57946 | 2944 ft | 184 kts | 70° |
| 2026-05-06 00:21 | 13.05544 | -59.56740 | 2929 ft | 176 kts | 74° |
| 2026-05-06 00:21 | 13.05861 | -59.55566 | 2788 ft | 168 kts | 75° |
| 2026-05-06 00:22 | 13.06153 | -59.54436 | 2607 ft | 160 kts | 75° |
| 2026-05-06 00:22 | 13.06431 | -59.53341 | 2380 ft | 157 kts | 74° |
| 2026-05-06 00:22 | 13.06697 | -59.52165 | 1770 ft | 175 kts | 80° |
| 2026-05-06 00:22 | 13.06956 | -59.51130 | 2282 ft | 131 kts | 68° |
| 2026-05-06 00:23 | 13.07232 | -59.50185 | 1261 ft | 169 kts | 70° |
| 2026-05-06 00:23 | 13.07815 | -59.49119 | 1002 ft | 146 kts | 42° |
| 2026-05-06 00:23 | 13.08847 | -59.48837 | 989 ft | 180 kts | 353° |
| 2026-05-06 00:23 | 13.09894 | -59.49679 | 1688 ft | 223 kts | 308° |
| 2026-05-06 00:24 | 13.11178 | -59.50900 | 1710 ft | 275 kts | 341° |
| 2026-05-06 00:24 | 13.13034 | -59.51099 | 2564 ft | 265 kts | 10° |
| 2026-05-06 00:24 | 13.14544 | -59.50335 | 2860 ft | 237 kts | 46° |
| 2026-05-06 00:24 | 13.15460 | -59.48871 | 2923 ft | 250 kts | 62° |
| 2026-05-06 00:25 | 13.16490 | -59.47436 | 2921 ft | 252 kts | 39° |
| 2026-05-06 00:25 | 13.17721 | -59.46778 | 2928 ft | 254 kts | 17° |
| 2026-05-06 00:25 | 13.19554 | -59.46770 | 2916 ft | 251 kts | 346° |
| 2026-05-06 00:25 | 13.21039 | -59.47672 | 2851 ft | 252 kts | 316° |
| 2026-05-06 00:26 | 13.21950 | -59.49204 | 2943 ft | 254 kts | 295° |
| 2026-05-06 00:26 | 13.22367 | -59.51049 | 3007 ft | 280 kts | 269° |
| 2026-05-06 00:26 | 13.22086 | -59.53043 | 3021 ft | 285 kts | 257° |
| 2026-05-06 00:26 | 13.21630 | -59.55046 | 3019 ft | 288 kts | 256° |
| 2026-05-06 00:27 | 13.21173 | -59.56991 | 2998 ft | 284 kts | 255° |
| 2026-05-06 00:27 | 13.20711 | -59.58960 | 3002 ft | 283 kts | 255° |
| 2026-05-06 00:27 | 13.20234 | -59.60899 | 2995 ft | 276 kts | 254° |
| 2026-05-06 00:27 | 13.19736 | -59.62798 | 2993 ft | 276 kts | 248° |
| 2026-05-06 00:28 | 13.18894 | -59.64567 | 3001 ft | 277 kts | 240° |
| 2026-05-06 00:28 | 13.17995 | -59.66318 | 3004 ft | 280 kts | 240° |
| 2026-05-06 00:28 | 13.17074 | -59.68096 | 3004 ft | 283 kts | 238° |
| 2026-05-06 00:28 | 13.15896 | -59.69687 | 3011 ft | 279 kts | 224° |
| 2026-05-06 00:29 | 13.14432 | -59.70986 | 3004 ft | 276 kts | 213° |
| 2026-05-06 00:29 | 13.12896 | -59.72130 | 3000 ft | 275 kts | 213° |
| 2026-05-06 00:29 | 13.11342 | -59.73262 | 3013 ft | 274 kts | 212° |
| 2026-05-06 00:29 | 13.09781 | -59.74391 | 2998 ft | 276 kts | 212° |
| 2026-05-06 00:30 | 13.08216 | -59.75512 | 3008 ft | 274 kts | 210° |
| 2026-05-06 00:30 | 13.06495 | -59.76372 | 3016 ft | 273 kts | 194° |
| 2026-05-06 00:30 | 13.04671 | -59.76852 | 3011 ft | 272 kts | 185° |
| 2026-05-06 00:30 | 13.02795 | -59.76896 | 3003 ft | 267 kts | 169° |
| 2026-05-06 00:31 | 13.01025 | -59.76415 | 3013 ft | 261 kts | 153° |
| 2026-05-06 00:31 | 12.99483 | -59.75474 | 3010 ft | 257 kts | 136° |
| 2026-05-06 00:31 | 12.98398 | -59.74101 | 3009 ft | 251 kts | 115° |
| 2026-05-06 00:31 | 12.97936 | -59.72431 | 2991 ft | 237 kts | 92° |
| 2026-05-06 00:32 | 12.98184 | -59.70826 | 2993 ft | 223 kts | 68° |
| 2026-05-06 00:32 | 12.99053 | -59.69571 | 2982 ft | 214 kts | 43° |
| 2026-05-06 00:32 | 13.00367 | -59.68926 | 2996 ft | 211 kts | 16° |
| 2026-05-06 00:32 | 13.01799 | -59.68700 | 2991 ft | 202 kts | 26° |
| 2026-05-06 00:33 | 13.02724 | -59.67804 | 2988 ft | 179 kts | 72° |
| 2026-05-06 00:33 | 13.02972 | -59.66591 | 2866 ft | 175 kts | 79° |
| 2026-05-06 00:33 | 13.03251 | -59.65410 | 2746 ft | 166 kts | 76° |
| 2026-05-06 00:33 | 13.03557 | -59.64286 | 2540 ft | 163 kts | 75° |
| 2026-05-06 00:34 | 13.03877 | -59.63180 | 2296 ft | 161 kts | 74° |
| 2026-05-06 00:34 | 13.04201 | -59.62096 | 2080 ft | 155 kts | 74° |
| 2026-05-06 00:34 | 13.04522 | -59.61048 | 2025 ft | 155 kts | 75° |
| 2026-05-06 00:34 | 13.04826 | -59.60021 | 1997 ft | 145 kts | 77° |
| 2026-05-06 00:35 | 13.05075 | -59.59038 | 1823 ft | 138 kts | 78° |
| 2026-05-06 00:35 | 13.05275 | -59.58212 | 1928 ft | 107 kts | 81° |
| 2026-05-06 00:35 | 13.05411 | -59.57434 | 1683 ft | 116 kts | 79° |
| 2026-05-06 00:35 | 13.05620 | -59.56639 | 1595 ft | 114 kts | 76° |
| 2026-05-06 00:36 | 13.05802 | -59.56133 | 1499 ft | 115 kts | 71° |
| 2026-05-06 00:36 | 13.06068 | -59.55048 | 1234 ft | 122 kts | 83° |
| 2026-05-06 00:36 | 13.06177 | -59.54464 | 1111 ft | 126 kts | 79° |
| 2026-05-06 00:36 | 13.06401 | -59.53587 | 881 ft | 131 kts | 75° |
| 2026-05-06 00:37 | 13.06626 | -59.52671 | 627 ft | 136 kts | 79° |
| 2026-05-06 00:37 | 13.06837 | -59.51747 | 382 ft | 129 kts | 78° |
| 2026-05-06 00:37 | 13.07051 | -59.50900 | 238 ft | 116 kts | 79° |
| 2026-05-06 00:37 | 13.07232 | -59.50155 | 179 ft | 97 kts | 78° |
| 2026-05-06 00:38 | 13.07339 | -59.49717 | 175 ft | 48 kts | 76° |
| 2026-05-06 00:38 | 13.07394 | -59.49501 | 175 ft | 29 kts | 75° |
| 2026-05-06 00:38 | 13.07435 | -59.49333 | 175 ft | 14 kts | 76° |
| 2026-05-06 00:38 | 13.07459 | -59.49233 | 175 ft | 17 kts | 76° |
| 2026-05-06 00:39 | 13.07494 | -59.49091 | 175 ft | 24 kts | 76° |
| 2026-05-06 00:39 | 13.07570 | -59.48963 | 174 ft | 24 kts | 48° |
| 2026-05-06 00:39 | 13.07619 | -59.48906 | 175 ft | 0 kts | 47° |
| 2026-05-06 00:41 | 13.07620 | -59.48905 | 175 ft | 1 kts | 47° |
| 2026-05-06 00:41 | 13.07639 | -59.48883 | 176 ft | 8 kts | 47° |
| 2026-05-06 00:42 | 13.07700 | -59.48823 | 176 ft | 14 kts | 41° |
| 2026-05-06 00:42 | 13.07738 | -59.48777 | 176 ft | 0 kts | 46° |
| 2026-05-06 00:42 | 13.07739 | -59.48775 | 176 ft | 1 kts | 46° |
| 2026-05-06 00:43 | 13.07757 | -59.48754 | 176 ft | 7 kts | 53° |
| 2026-05-06 00:43 | 13.07786 | -59.48729 | 176 ft | 4 kts | 4° |
| 2026-05-06 00:43 | 13.07826 | -59.48739 | 177 ft | 9 kts | 346° |
| 2026-05-06 00:43 | 13.07864 | -59.48749 | 177 ft | 3 kts | 346° |
| 2026-05-06 00:44 | 13.07872 | -59.48751 | 177 ft | 2 kts | 346° |
| 2026-05-06 00:44 | 13.07883 | -59.48754 | 177 ft | 0 kts | 345° |